sensor_id;sensor_type;location;lat;lon;timestamp;P1;durP1;ratioP1;P2;durP2;ratioP2
4244;SDS011;2136;48.502;9.194;2023-11-21T00:00:26;6.20;;;1.47;;
4244;SDS011;2136;48.502;9.194;2023-11-21T00:02:53;2.20;;;1.10;;
4244;SDS011;2136;48.502;9.194;2023-11-21T00:05:21;1.20;;;1.10;;
4244;SDS011;2136;48.502;9.194;2023-11-21T00:07:48;3.87;;;1.50;;
4244;SDS011;2136;48.502;9.194;2023-11-21T00:10:16;4.27;;;1.40;;
4244;SDS011;2136;48.502;9.194;2023-11-21T00:12:43;2.50;;;1.57;;
4244;SDS011;2136;48.502;9.194;2023-11-21T00:15:13;2.43;;;1.13;;
4244;SDS011;2136;48.502;9.194;2023-11-21T00:17:40;4.82;;;1.50;;
4244;SDS011;2136;48.502;9.194;2023-11-21T00:20:08;2.30;;;1.13;;
4244;SDS011;2136;48.502;9.194;2023-11-21T00:22:39;8.90;;;1.80;;
4244;SDS011;2136;48.502;9.194;2023-11-21T00:25:06;1.87;;;1.20;;
4244;SDS011;2136;48.502;9.194;2023-11-21T00:27:34;2.40;;;1.40;;
4244;SDS011;2136;48.502;9.194;2023-11-21T00:30:01;4.57;;;1.30;;
4244;SDS011;2136;48.502;9.194;2023-11-21T00:32:29;1.60;;;0.90;;
4244;SDS011;2136;48.502;9.194;2023-11-21T00:34:56;4.00;;;1.57;;
4244;SDS011;2136;48.502;9.194;2023-11-21T00:37:24;2.30;;;1.03;;
4244;SDS011;2136;48.502;9.194;2023-11-21T00:39:52;2.20;;;1.00;;
4244;SDS011;2136;48.502;9.194;2023-11-21T00:42:19;2.97;;;1.00;;
4244;SDS011;2136;48.502;9.194;2023-11-21T00:44:46;2.20;;;1.20;;
4244;SDS011;2136;48.502;9.194;2023-11-21T00:47:13;1.40;;;1.03;;
4244;SDS011;2136;48.502;9.194;2023-11-21T00:49:40;4.07;;;1.60;;
4244;SDS011;2136;48.502;9.194;2023-11-21T00:52:07;4.87;;;1.33;;
4244;SDS011;2136;48.502;9.194;2023-11-21T00:54:34;3.20;;;1.30;;
4244;SDS011;2136;48.502;9.194;2023-11-21T00:57:02;3.43;;;1.60;;
4244;SDS011;2136;48.502;9.194;2023-11-21T00:59:29;2.00;;;0.80;;
4244;SDS011;2136;48.502;9.194;2023-11-21T01:01:56;4.47;;;1.23;;
4244;SDS011;2136;48.502;9.194;2023-11-21T01:04:25;2.30;;;1.00;;
4244;SDS011;2136;48.502;9.194;2023-11-21T01:06:52;5.80;;;1.20;;
4244;SDS011;2136;48.502;9.194;2023-11-21T01:09:19;2.43;;;1.17;;
4244;SDS011;2136;48.502;9.194;2023-11-21T01:11:45;1.87;;;1.10;;
4244;SDS011;2136;48.502;9.194;2023-11-21T01:14:14;4.87;;;1.10;;
4244;SDS011;2136;48.502;9.194;2023-11-21T01:16:42;2.37;;;1.27;;
4244;SDS011;2136;48.502;9.194;2023-11-21T01:19:09;2.73;;;1.07;;
4244;SDS011;2136;48.502;9.194;2023-11-21T01:21:36;3.53;;;1.53;;
4244;SDS011;2136;48.502;9.194;2023-11-21T01:24:03;1.27;;;0.90;;
4244;SDS011;2136;48.502;9.194;2023-11-21T01:26:32;1.80;;;1.10;;
4244;SDS011;2136;48.502;9.194;2023-11-21T01:28:59;1.77;;;1.10;;
4244;SDS011;2136;48.502;9.194;2023-11-21T01:31:27;0.77;;;0.70;;
4244;SDS011;2136;48.502;9.194;2023-11-21T01:33:54;1.27;;;1.00;;
4244;SDS011;2136;48.502;9.194;2023-11-21T01:36:21;2.80;;;0.77;;
4244;SDS011;2136;48.502;9.194;2023-11-21T01:38:48;3.23;;;0.80;;
4244;SDS011;2136;48.502;9.194;2023-11-21T01:41:15;0.83;;;0.70;;
4244;SDS011;2136;48.502;9.194;2023-11-21T01:43:42;1.10;;;0.93;;
4244;SDS011;2136;48.502;9.194;2023-11-21T01:46:09;3.00;;;0.80;;
4244;SDS011;2136;48.502;9.194;2023-11-21T01:48:37;0.80;;;0.80;;
4244;SDS011;2136;48.502;9.194;2023-11-21T01:51:05;1.27;;;0.60;;
4244;SDS011;2136;48.502;9.194;2023-11-21T01:53:33;1.13;;;0.90;;
4244;SDS011;2136;48.502;9.194;2023-11-21T01:56:01;1.17;;;0.80;;
4244;SDS011;2136;48.502;9.194;2023-11-21T01:58:30;1.80;;;0.93;;
4244;SDS011;2136;48.502;9.194;2023-11-21T02:00:58;6.93;;;1.00;;
4244;SDS011;2136;48.502;9.194;2023-11-21T02:03:25;0.60;;;0.60;;
4244;SDS011;2136;48.502;9.194;2023-11-21T02:05:53;0.60;;;0.60;;
4244;SDS011;2136;48.502;9.194;2023-11-21T02:08:20;0.60;;;0.60;;
4244;SDS011;2136;48.502;9.194;2023-11-21T02:10:47;2.40;;;1.30;;
4244;SDS011;2136;48.502;9.194;2023-11-21T02:13:14;0.70;;;0.70;;
4244;SDS011;2136;48.502;9.194;2023-11-21T02:15:41;1.53;;;0.77;;
4244;SDS011;2136;48.502;9.194;2023-11-21T02:18:08;1.43;;;0.70;;
4244;SDS011;2136;48.502;9.194;2023-11-21T02:20:36;1.10;;;0.90;;
4244;SDS011;2136;48.502;9.194;2023-11-21T02:23:05;1.57;;;0.73;;
4244;SDS011;2136;48.502;9.194;2023-11-21T02:25:32;0.77;;;0.73;;
4244;SDS011;2136;48.502;9.194;2023-11-21T02:28:02;1.63;;;0.70;;
4244;SDS011;2136;48.502;9.194;2023-11-21T02:30:30;0.80;;;0.80;;
4244;SDS011;2136;48.502;9.194;2023-11-21T02:32:57;0.67;;;0.67;;
4244;SDS011;2136;48.502;9.194;2023-11-21T02:35:24;2.50;;;1.00;;
4244;SDS011;2136;48.502;9.194;2023-11-21T02:37:52;0.97;;;0.80;;
4244;SDS011;2136;48.502;9.194;2023-11-21T02:40:20;0.97;;;0.90;;
4244;SDS011;2136;48.502;9.194;2023-11-21T02:42:47;0.60;;;0.60;;
4244;SDS011;2136;48.502;9.194;2023-11-21T02:45:16;0.90;;;0.77;;
4244;SDS011;2136;48.502;9.194;2023-11-21T02:47:43;5.17;;;0.80;;
4244;SDS011;2136;48.502;9.194;2023-11-21T02:50:10;0.63;;;0.63;;
4244;SDS011;2136;48.502;9.194;2023-11-21T02:52:37;0.60;;;0.60;;
4244;SDS011;2136;48.502;9.194;2023-11-21T02:55:05;0.70;;;0.70;;
4244;SDS011;2136;48.502;9.194;2023-11-21T02:57:34;0.60;;;0.60;;
4244;SDS011;2136;48.502;9.194;2023-11-21T03:00:01;1.00;;;0.90;;
4244;SDS011;2136;48.502;9.194;2023-11-21T03:02:28;0.80;;;0.60;;
4244;SDS011;2136;48.502;9.194;2023-11-21T03:04:55;0.63;;;0.63;;
4244;SDS011;2136;48.502;9.194;2023-11-21T03:07:21;0.80;;;0.80;;
4244;SDS011;2136;48.502;9.194;2023-11-21T03:09:48;0.70;;;0.70;;
4244;SDS011;2136;48.502;9.194;2023-11-21T03:12:15;0.70;;;0.60;;
4244;SDS011;2136;48.502;9.194;2023-11-21T03:14:43;1.57;;;0.67;;
4244;SDS011;2136;48.502;9.194;2023-11-21T03:17:10;4.67;;;0.90;;
4244;SDS011;2136;48.502;9.194;2023-11-21T03:19:37;0.90;;;0.90;;
4244;SDS011;2136;48.502;9.194;2023-11-21T03:22:04;1.37;;;0.80;;
4244;SDS011;2136;48.502;9.194;2023-11-21T03:24:31;0.93;;;0.80;;
4244;SDS011;2136;48.502;9.194;2023-11-21T03:26:58;5.40;;;0.90;;
4244;SDS011;2136;48.502;9.194;2023-11-21T03:29:25;5.13;;;0.70;;
4244;SDS011;2136;48.502;9.194;2023-11-21T03:31:53;1.27;;;0.77;;
4244;SDS011;2136;48.502;9.194;2023-11-21T03:34:23;0.70;;;0.70;;
4244;SDS011;2136;48.502;9.194;2023-11-21T03:36:50;0.60;;;0.60;;
4244;SDS011;2136;48.502;9.194;2023-11-21T03:39:17;1.30;;;0.90;;
4244;SDS011;2136;48.502;9.194;2023-11-21T03:41:45;0.60;;;0.60;;
4244;SDS011;2136;48.502;9.194;2023-11-21T03:44:12;0.60;;;0.60;;
4244;SDS011;2136;48.502;9.194;2023-11-21T03:46:39;0.83;;;0.70;;
4244;SDS011;2136;48.502;9.194;2023-11-21T03:49:07;0.90;;;0.90;;
4244;SDS011;2136;48.502;9.194;2023-11-21T03:51:34;0.63;;;0.63;;
4244;SDS011;2136;48.502;9.194;2023-11-21T03:54:01;1.17;;;0.60;;
4244;SDS011;2136;48.502;9.194;2023-11-21T03:56:28;0.50;;;0.50;;
4244;SDS011;2136;48.502;9.194;2023-11-21T03:58:55;1.37;;;0.70;;
4244;SDS011;2136;48.502;9.194;2023-11-21T04:01:22;1.00;;;0.70;;
4244;SDS011;2136;48.502;9.194;2023-11-21T04:03:49;0.70;;;0.70;;
4244;SDS011;2136;48.502;9.194;2023-11-21T04:06:18;0.60;;;0.60;;
4244;SDS011;2136;48.502;9.194;2023-11-21T04:08:45;0.60;;;0.60;;
4244;SDS011;2136;48.502;9.194;2023-11-21T04:11:12;1.57;;;0.70;;
4244;SDS011;2136;48.502;9.194;2023-11-21T04:13:39;0.60;;;0.60;;
4244;SDS011;2136;48.502;9.194;2023-11-21T04:16:08;0.60;;;0.60;;
4244;SDS011;2136;48.502;9.194;2023-11-21T04:18:35;0.60;;;0.60;;
4244;SDS011;2136;48.502;9.194;2023-11-21T04:21:02;4.47;;;0.60;;
4244;SDS011;2136;48.502;9.194;2023-11-21T04:23:30;0.83;;;0.63;;
4244;SDS011;2136;48.502;9.194;2023-11-21T04:25:57;0.50;;;0.50;;
4244;SDS011;2136;48.502;9.194;2023-11-21T04:28:24;1.03;;;0.60;;
4244;SDS011;2136;48.502;9.194;2023-11-21T04:30:51;0.60;;;0.60;;
4244;SDS011;2136;48.502;9.194;2023-11-21T04:33:18;0.67;;;0.67;;
4244;SDS011;2136;48.502;9.194;2023-11-21T04:35:45;1.37;;;0.70;;
4244;SDS011;2136;48.502;9.194;2023-11-21T04:38:12;2.77;;;0.70;;
4244;SDS011;2136;48.502;9.194;2023-11-21T04:40:40;0.70;;;0.70;;
4244;SDS011;2136;48.502;9.194;2023-11-21T04:43:07;1.70;;;0.80;;
4244;SDS011;2136;48.502;9.194;2023-11-21T04:45:33;1.07;;;0.60;;
4244;SDS011;2136;48.502;9.194;2023-11-21T04:48:00;1.50;;;0.73;;
4244;SDS011;2136;48.502;9.194;2023-11-21T04:50:27;0.60;;;0.60;;
4244;SDS011;2136;48.502;9.194;2023-11-21T04:52:54;0.70;;;0.63;;
4244;SDS011;2136;48.502;9.194;2023-11-21T04:55:21;0.60;;;0.60;;
4244;SDS011;2136;48.502;9.194;2023-11-21T04:57:49;0.77;;;0.77;;
4244;SDS011;2136;48.502;9.194;2023-11-21T05:00:16;0.60;;;0.60;;
4244;SDS011;2136;48.502;9.194;2023-11-21T05:02:43;2.30;;;0.70;;
4244;SDS011;2136;48.502;9.194;2023-11-21T05:05:10;0.70;;;0.70;;
4244;SDS011;2136;48.502;9.194;2023-11-21T05:07:37;0.60;;;0.60;;
4244;SDS011;2136;48.502;9.194;2023-11-21T05:10:05;0.87;;;0.70;;
4244;SDS011;2136;48.502;9.194;2023-11-21T05:12:36;0.70;;;0.70;;
4244;SDS011;2136;48.502;9.194;2023-11-21T05:15:05;0.60;;;0.60;;
4244;SDS011;2136;48.502;9.194;2023-11-21T05:17:34;0.60;;;0.60;;
4244;SDS011;2136;48.502;9.194;2023-11-21T05:20:01;0.60;;;0.60;;
4244;SDS011;2136;48.502;9.194;2023-11-21T05:22:33;0.80;;;0.67;;
4244;SDS011;2136;48.502;9.194;2023-11-21T05:25:00;0.70;;;0.70;;
4244;SDS011;2136;48.502;9.194;2023-11-21T05:27:28;0.63;;;0.63;;
4244;SDS011;2136;48.502;9.194;2023-11-21T05:29:55;0.80;;;0.80;;
4244;SDS011;2136;48.502;9.194;2023-11-21T05:32:23;0.60;;;0.60;;
4244;SDS011;2136;48.502;9.194;2023-11-21T05:34:50;0.60;;;0.60;;
4244;SDS011;2136;48.502;9.194;2023-11-21T05:37:16;1.80;;;0.70;;
4244;SDS011;2136;48.502;9.194;2023-11-21T05:39:43;0.73;;;0.63;;
4244;SDS011;2136;48.502;9.194;2023-11-21T05:42:10;0.60;;;0.60;;
4244;SDS011;2136;48.502;9.194;2023-11-21T05:44:38;1.07;;;0.60;;
4244;SDS011;2136;48.502;9.194;2023-11-21T05:47:08;0.60;;;0.60;;
4244;SDS011;2136;48.502;9.194;2023-11-21T05:49:36;0.80;;;0.80;;
4244;SDS011;2136;48.502;9.194;2023-11-21T05:52:03;1.03;;;1.03;;
4244;SDS011;2136;48.502;9.194;2023-11-21T05:54:31;0.83;;;0.83;;
4244;SDS011;2136;48.502;9.194;2023-11-21T05:56:58;0.83;;;0.80;;
4244;SDS011;2136;48.502;9.194;2023-11-21T05:59:26;1.23;;;1.00;;
4244;SDS011;2136;48.502;9.194;2023-11-21T06:01:52;1.53;;;1.33;;
4244;SDS011;2136;48.502;9.194;2023-11-21T06:04:20;1.43;;;1.30;;
4244;SDS011;2136;48.502;9.194;2023-11-21T06:06:50;2.30;;;1.00;;
4244;SDS011;2136;48.502;9.194;2023-11-21T06:09:17;1.60;;;1.00;;
4244;SDS011;2136;48.502;9.194;2023-11-21T06:11:44;1.83;;;1.13;;
4244;SDS011;2136;48.502;9.194;2023-11-21T06:14:11;1.10;;;1.10;;
4244;SDS011;2136;48.502;9.194;2023-11-21T06:16:38;1.70;;;1.00;;
4244;SDS011;2136;48.502;9.194;2023-11-21T06:19:05;0.77;;;0.77;;
4244;SDS011;2136;48.502;9.194;2023-11-21T06:21:32;1.23;;;1.17;;
4244;SDS011;2136;48.502;9.194;2023-11-21T06:24:01;2.40;;;1.07;;
4244;SDS011;2136;48.502;9.194;2023-11-21T06:26:28;1.60;;;1.13;;
4244;SDS011;2136;48.502;9.194;2023-11-21T06:28:56;1.10;;;1.00;;
4244;SDS011;2136;48.502;9.194;2023-11-21T06:31:23;1.10;;;1.10;;
4244;SDS011;2136;48.502;9.194;2023-11-21T06:33:50;1.60;;;1.50;;
4244;SDS011;2136;48.502;9.194;2023-11-21T06:36:17;0.80;;;0.80;;
4244;SDS011;2136;48.502;9.194;2023-11-21T06:38:44;0.80;;;0.80;;
4244;SDS011;2136;48.502;9.194;2023-11-21T06:41:13;1.10;;;1.00;;
4244;SDS011;2136;48.502;9.194;2023-11-21T06:43:41;1.57;;;0.90;;
4244;SDS011;2136;48.502;9.194;2023-11-21T06:46:10;1.70;;;1.00;;
4244;SDS011;2136;48.502;9.194;2023-11-21T06:48:39;1.40;;;1.30;;
4244;SDS011;2136;48.502;9.194;2023-11-21T06:51:06;1.97;;;0.87;;
4244;SDS011;2136;48.502;9.194;2023-11-21T06:53:33;1.60;;;1.23;;
4244;SDS011;2136;48.502;9.194;2023-11-21T06:56:00;1.13;;;1.03;;
4244;SDS011;2136;48.502;9.194;2023-11-21T06:58:28;0.80;;;0.80;;
4244;SDS011;2136;48.502;9.194;2023-11-21T07:00:55;0.90;;;0.90;;
4244;SDS011;2136;48.502;9.194;2023-11-21T07:03:23;1.00;;;0.93;;
4244;SDS011;2136;48.502;9.194;2023-11-21T07:05:51;1.27;;;0.87;;
4244;SDS011;2136;48.502;9.194;2023-11-21T07:08:18;1.00;;;0.90;;
4244;SDS011;2136;48.502;9.194;2023-11-21T07:10:44;1.30;;;1.20;;
4244;SDS011;2136;48.502;9.194;2023-11-21T07:13:12;1.60;;;1.10;;
4244;SDS011;2136;48.502;9.194;2023-11-21T07:15:40;1.60;;;1.10;;
4244;SDS011;2136;48.502;9.194;2023-11-21T07:18:08;1.90;;;0.93;;
4244;SDS011;2136;48.502;9.194;2023-11-21T07:20:35;2.10;;;1.63;;
4244;SDS011;2136;48.502;9.194;2023-11-21T07:23:02;3.13;;;1.40;;
4244;SDS011;2136;48.502;9.194;2023-11-21T07:25:30;0.80;;;0.80;;
4244;SDS011;2136;48.502;9.194;2023-11-21T07:27:58;1.23;;;1.17;;
4244;SDS011;2136;48.502;9.194;2023-11-21T07:30:26;0.80;;;0.80;;
4244;SDS011;2136;48.502;9.194;2023-11-21T07:32:54;1.53;;;1.00;;
4244;SDS011;2136;48.502;9.194;2023-11-21T07:35:21;4.73;;;1.20;;
4244;SDS011;2136;48.502;9.194;2023-11-21T07:37:48;0.93;;;0.80;;
4244;SDS011;2136;48.502;9.194;2023-11-21T07:40:15;1.53;;;1.10;;
4244;SDS011;2136;48.502;9.194;2023-11-21T07:42:42;1.30;;;1.20;;
4244;SDS011;2136;48.502;9.194;2023-11-21T07:45:09;1.80;;;1.37;;
4244;SDS011;2136;48.502;9.194;2023-11-21T07:47:36;1.77;;;1.13;;
4244;SDS011;2136;48.502;9.194;2023-11-21T07:50:06;1.00;;;0.73;;
4244;SDS011;2136;48.502;9.194;2023-11-21T07:52:33;2.40;;;0.90;;
4244;SDS011;2136;48.502;9.194;2023-11-21T07:55:00;1.07;;;0.97;;
4244;SDS011;2136;48.502;9.194;2023-11-21T07:57:27;0.80;;;0.80;;
4244;SDS011;2136;48.502;9.194;2023-11-21T07:59:54;0.93;;;0.83;;
4244;SDS011;2136;48.502;9.194;2023-11-21T08:02:21;3.50;;;1.30;;
4244;SDS011;2136;48.502;9.194;2023-11-21T08:04:48;2.30;;;1.20;;
4244;SDS011;2136;48.502;9.194;2023-11-21T08:07:16;1.27;;;1.17;;
4244;SDS011;2136;48.502;9.194;2023-11-21T08:09:43;1.20;;;1.10;;
4244;SDS011;2136;48.502;9.194;2023-11-21T08:12:11;0.90;;;0.90;;
4244;SDS011;2136;48.502;9.194;2023-11-21T08:14:39;0.90;;;0.90;;
4244;SDS011;2136;48.502;9.194;2023-11-21T08:17:06;3.37;;;0.93;;
4244;SDS011;2136;48.502;9.194;2023-11-21T08:19:35;0.80;;;0.80;;
4244;SDS011;2136;48.502;9.194;2023-11-21T08:22:02;0.90;;;0.90;;
4244;SDS011;2136;48.502;9.194;2023-11-21T08:24:30;1.53;;;1.13;;
4244;SDS011;2136;48.502;9.194;2023-11-21T08:26:57;1.07;;;0.97;;
4244;SDS011;2136;48.502;9.194;2023-11-21T08:29:24;1.13;;;0.80;;
4244;SDS011;2136;48.502;9.194;2023-11-21T08:31:51;1.70;;;0.87;;
4244;SDS011;2136;48.502;9.194;2023-11-21T08:34:18;1.47;;;1.07;;
4244;SDS011;2136;48.502;9.194;2023-11-21T08:36:45;1.80;;;0.90;;
4244;SDS011;2136;48.502;9.194;2023-11-21T08:39:12;0.90;;;0.90;;
4244;SDS011;2136;48.502;9.194;2023-11-21T08:41:42;0.90;;;0.90;;
4244;SDS011;2136;48.502;9.194;2023-11-21T08:44:09;0.83;;;0.83;;
4244;SDS011;2136;48.502;9.194;2023-11-21T08:46:36;1.30;;;1.20;;
4244;SDS011;2136;48.502;9.194;2023-11-21T08:49:04;0.90;;;0.90;;
4244;SDS011;2136;48.502;9.194;2023-11-21T08:51:31;1.03;;;0.93;;
4244;SDS011;2136;48.502;9.194;2023-11-21T08:53:58;1.10;;;1.00;;
4244;SDS011;2136;48.502;9.194;2023-11-21T08:56:29;1.23;;;0.80;;
4244;SDS011;2136;48.502;9.194;2023-11-21T08:58:57;1.03;;;0.80;;
4244;SDS011;2136;48.502;9.194;2023-11-21T09:01:25;1.80;;;1.10;;
4244;SDS011;2136;48.502;9.194;2023-11-21T09:03:52;1.20;;;1.10;;
4244;SDS011;2136;48.502;9.194;2023-11-21T09:06:19;0.90;;;0.90;;
4244;SDS011;2136;48.502;9.194;2023-11-21T09:08:46;1.50;;;1.10;;
4244;SDS011;2136;48.502;9.194;2023-11-21T09:11:13;1.13;;;0.97;;
4244;SDS011;2136;48.502;9.194;2023-11-21T09:13:39;1.20;;;1.10;;
4244;SDS011;2136;48.502;9.194;2023-11-21T09:16:08;3.37;;;1.17;;
4244;SDS011;2136;48.502;9.194;2023-11-21T09:18:35;1.43;;;1.20;;
4244;SDS011;2136;48.502;9.194;2023-11-21T09:21:02;1.77;;;1.00;;
4244;SDS011;2136;48.502;9.194;2023-11-21T09:23:30;1.40;;;1.30;;
4244;SDS011;2136;48.502;9.194;2023-11-21T09:25:56;1.50;;;1.40;;
4244;SDS011;2136;48.502;9.194;2023-11-21T09:28:25;2.93;;;1.40;;
4244;SDS011;2136;48.502;9.194;2023-11-21T09:30:53;1.07;;;1.07;;
4244;SDS011;2136;48.502;9.194;2023-11-21T09:33:21;1.40;;;1.30;;
4244;SDS011;2136;48.502;9.194;2023-11-21T09:35:50;2.43;;;1.33;;
4244;SDS011;2136;48.502;9.194;2023-11-21T09:38:17;3.57;;;1.37;;
4244;SDS011;2136;48.502;9.194;2023-11-21T09:40:44;1.03;;;1.03;;
4244;SDS011;2136;48.502;9.194;2023-11-21T09:43:14;0.80;;;0.80;;
4244;SDS011;2136;48.502;9.194;2023-11-21T09:45:45;1.77;;;1.10;;
4244;SDS011;2136;48.502;9.194;2023-11-21T09:48:13;1.40;;;1.30;;
4244;SDS011;2136;48.502;9.194;2023-11-21T09:50:43;1.77;;;1.10;;
4244;SDS011;2136;48.502;9.194;2023-11-21T09:53:12;2.10;;;1.20;;
4244;SDS011;2136;48.502;9.194;2023-11-21T09:55:43;1.23;;;1.13;;
4244;SDS011;2136;48.502;9.194;2023-11-21T09:58:11;2.60;;;1.17;;
4244;SDS011;2136;48.502;9.194;2023-11-21T10:00:39;8.03;;;1.40;;
4244;SDS011;2136;48.502;9.194;2023-11-21T10:03:07;2.90;;;1.00;;
4244;SDS011;2136;48.502;9.194;2023-11-21T10:05:34;1.20;;;1.13;;
4244;SDS011;2136;48.502;9.194;2023-11-21T10:08:03;1.17;;;1.10;;
4244;SDS011;2136;48.502;9.194;2023-11-21T10:10:33;1.17;;;1.17;;
4244;SDS011;2136;48.502;9.194;2023-11-21T10:13:01;1.43;;;1.23;;
4244;SDS011;2136;48.502;9.194;2023-11-21T10:15:31;2.43;;;0.90;;
4244;SDS011;2136;48.502;9.194;2023-11-21T10:18:01;0.70;;;0.70;;
4244;SDS011;2136;48.502;9.194;2023-11-21T10:20:30;1.27;;;1.17;;
4244;SDS011;2136;48.502;9.194;2023-11-21T10:22:58;0.90;;;0.90;;
4244;SDS011;2136;48.502;9.194;2023-11-21T10:25:28;1.00;;;1.00;;
4244;SDS011;2136;48.502;9.194;2023-11-21T10:27:57;10.60;;;0.90;;
4244;SDS011;2136;48.502;9.194;2023-11-21T10:30:27;1.17;;;1.10;;
4244;SDS011;2136;48.502;9.194;2023-11-21T10:33:00;1.47;;;1.10;;
4244;SDS011;2136;48.502;9.194;2023-11-21T10:35:38;2.77;;;1.37;;
4244;SDS011;2136;48.502;9.194;2023-11-21T10:38:06;0.60;;;0.60;;
4244;SDS011;2136;48.502;9.194;2023-11-21T10:40:38;2.50;;;1.00;;
4244;SDS011;2136;48.502;9.194;2023-11-21T10:43:07;1.10;;;1.00;;
4244;SDS011;2136;48.502;9.194;2023-11-21T10:45:35;2.00;;;0.83;;
4244;SDS011;2136;48.502;9.194;2023-11-21T10:48:04;1.60;;;1.00;;
4244;SDS011;2136;48.502;9.194;2023-11-21T10:50:34;0.80;;;0.80;;
4244;SDS011;2136;48.502;9.194;2023-11-21T10:53:01;0.60;;;0.60;;
4244;SDS011;2136;48.502;9.194;2023-11-21T10:55:29;1.40;;;0.93;;
4244;SDS011;2136;48.502;9.194;2023-11-21T10:57:59;0.83;;;0.83;;
4244;SDS011;2136;48.502;9.194;2023-11-21T11:00:28;2.70;;;1.10;;
4244;SDS011;2136;48.502;9.194;2023-11-21T11:02:56;1.07;;;0.97;;
4244;SDS011;2136;48.502;9.194;2023-11-21T11:05:24;1.50;;;1.40;;
4244;SDS011;2136;48.502;9.194;2023-11-21T11:07:54;1.00;;;0.90;;
4244;SDS011;2136;48.502;9.194;2023-11-21T11:10:26;1.10;;;0.70;;
4244;SDS011;2136;48.502;9.194;2023-11-21T11:12:54;16.10;;;1.10;;
4244;SDS011;2136;48.502;9.194;2023-11-21T11:15:23;1.20;;;1.03;;
4244;SDS011;2136;48.502;9.194;2023-11-21T11:17:51;1.17;;;1.07;;
4244;SDS011;2136;48.502;9.194;2023-11-21T11:20:22;0.97;;;0.97;;
4244;SDS011;2136;48.502;9.194;2023-11-21T11:22:50;0.67;;;0.67;;
4244;SDS011;2136;48.502;9.194;2023-11-21T11:25:28;2.10;;;0.93;;
4244;SDS011;2136;48.502;9.194;2023-11-21T11:28:07;0.83;;;0.83;;
4244;SDS011;2136;48.502;9.194;2023-11-21T11:30:41;0.90;;;0.90;;
4244;SDS011;2136;48.502;9.194;2023-11-21T11:33:20;0.83;;;0.83;;
4244;SDS011;2136;48.502;9.194;2023-11-21T11:35:52;0.93;;;0.93;;
4244;SDS011;2136;48.502;9.194;2023-11-21T11:38:23;2.00;;;1.10;;
4244;SDS011;2136;48.502;9.194;2023-11-21T11:40:53;0.73;;;0.73;;
4244;SDS011;2136;48.502;9.194;2023-11-21T11:43:25;1.37;;;1.17;;
4244;SDS011;2136;48.502;9.194;2023-11-21T11:45:53;2.40;;;2.30;;
4244;SDS011;2136;48.502;9.194;2023-11-21T11:48:22;1.27;;;1.17;;
4244;SDS011;2136;48.502;9.194;2023-11-21T11:53:39;0.77;;;0.77;;
4244;SDS011;2136;48.502;9.194;2023-11-21T11:56:21;1.53;;;1.43;;
4244;SDS011;2136;48.502;9.194;2023-11-21T11:58:51;6.03;;;1.90;;
4244;SDS011;2136;48.502;9.194;2023-11-21T12:01:20;5.60;;;4.90;;
4244;SDS011;2136;48.502;9.194;2023-11-21T12:07:00;4.00;;;3.63;;
4244;SDS011;2136;48.502;9.194;2023-11-21T12:09:29;3.77;;;3.47;;
4244;SDS011;2136;48.502;9.194;2023-11-21T12:11:57;1.80;;;1.70;;
4244;SDS011;2136;48.502;9.194;2023-11-21T12:14:25;2.93;;;2.73;;
4244;SDS011;2136;48.502;9.194;2023-11-21T12:16:53;3.87;;;3.00;;
4244;SDS011;2136;48.502;9.194;2023-11-21T12:19:20;3.30;;;1.80;;
4244;SDS011;2136;48.502;9.194;2023-11-21T12:21:48;1.73;;;1.63;;
4244;SDS011;2136;48.502;9.194;2023-11-21T12:24:15;1.90;;;1.80;;
4244;SDS011;2136;48.502;9.194;2023-11-21T12:26:42;3.20;;;2.90;;
4244;SDS011;2136;48.502;9.194;2023-11-21T12:29:10;2.97;;;2.77;;
4244;SDS011;2136;48.502;9.194;2023-11-21T12:31:37;3.00;;;2.23;;
4244;SDS011;2136;48.502;9.194;2023-11-21T12:34:05;2.43;;;1.23;;
4244;SDS011;2136;48.502;9.194;2023-11-21T12:36:34;3.67;;;3.13;;
4244;SDS011;2136;48.502;9.194;2023-11-21T12:39:01;2.60;;;2.40;;
4244;SDS011;2136;48.502;9.194;2023-11-21T12:41:28;3.07;;;2.20;;
4244;SDS011;2136;48.502;9.194;2023-11-21T12:43:56;2.13;;;1.60;;
4244;SDS011;2136;48.502;9.194;2023-11-21T12:46:23;1.97;;;1.70;;
4244;SDS011;2136;48.502;9.194;2023-11-21T12:48:54;1.57;;;1.47;;
4244;SDS011;2136;48.502;9.194;2023-11-21T12:51:22;2.80;;;1.50;;
4244;SDS011;2136;48.502;9.194;2023-11-21T12:53:50;1.10;;;1.10;;
4244;SDS011;2136;48.502;9.194;2023-11-21T12:56:17;1.33;;;1.33;;
4244;SDS011;2136;48.502;9.194;2023-11-21T12:58:48;1.73;;;1.53;;
4244;SDS011;2136;48.502;9.194;2023-11-21T13:01:15;2.57;;;1.70;;
4244;SDS011;2136;48.502;9.194;2023-11-21T13:03:45;2.00;;;1.90;;
4244;SDS011;2136;48.502;9.194;2023-11-21T13:06:15;1.70;;;1.50;;
4244;SDS011;2136;48.502;9.194;2023-11-21T13:08:46;2.70;;;1.63;;
4244;SDS011;2136;48.502;9.194;2023-11-21T13:11:13;2.10;;;2.00;;
4244;SDS011;2136;48.502;9.194;2023-11-21T13:13:41;3.00;;;1.83;;
4244;SDS011;2136;48.502;9.194;2023-11-21T13:16:09;1.30;;;1.20;;
4244;SDS011;2136;48.502;9.194;2023-11-21T13:18:36;3.00;;;1.73;;
4244;SDS011;2136;48.502;9.194;2023-11-21T13:21:05;1.70;;;1.60;;
4244;SDS011;2136;48.502;9.194;2023-11-21T13:23:36;1.77;;;1.67;;
4244;SDS011;2136;48.502;9.194;2023-11-21T13:26:05;1.80;;;1.70;;
4244;SDS011;2136;48.502;9.194;2023-11-21T13:28:32;2.00;;;1.90;;
4244;SDS011;2136;48.502;9.194;2023-11-21T13:30:59;2.80;;;2.00;;
4244;SDS011;2136;48.502;9.194;2023-11-21T13:33:34;1.83;;;1.73;;
4244;SDS011;2136;48.502;9.194;2023-11-21T13:36:03;2.10;;;2.00;;
4244;SDS011;2136;48.502;9.194;2023-11-21T13:38:33;3.13;;;2.93;;
4244;SDS011;2136;48.502;9.194;2023-11-21T13:41:01;4.37;;;2.70;;
4244;SDS011;2136;48.502;9.194;2023-11-21T13:43:34;2.90;;;2.50;;
4244;SDS011;2136;48.502;9.194;2023-11-21T13:46:02;3.63;;;1.60;;
4244;SDS011;2136;48.502;9.194;2023-11-21T13:48:38;1.90;;;1.80;;
4244;SDS011;2136;48.502;9.194;2023-11-21T13:51:07;1.90;;;1.80;;
4244;SDS011;2136;48.502;9.194;2023-11-21T13:53:42;2.53;;;2.27;;
4244;SDS011;2136;48.502;9.194;2023-11-21T13:56:09;2.17;;;2.07;;
4244;SDS011;2136;48.502;9.194;2023-11-21T13:58:39;2.70;;;2.50;;
4244;SDS011;2136;48.502;9.194;2023-11-21T14:01:11;2.37;;;2.13;;
4244;SDS011;2136;48.502;9.194;2023-11-21T14:03:57;2.57;;;2.10;;
4244;SDS011;2136;48.502;9.194;2023-11-21T14:06:33;3.80;;;2.40;;
4244;SDS011;2136;48.502;9.194;2023-11-21T14:09:07;5.50;;;2.60;;
4244;SDS011;2136;48.502;9.194;2023-11-21T14:11:34;3.47;;;3.17;;
4244;SDS011;2136;48.502;9.194;2023-11-21T14:14:04;4.43;;;2.40;;
4244;SDS011;2136;48.502;9.194;2023-11-21T14:16:31;3.73;;;2.70;;
4244;SDS011;2136;48.502;9.194;2023-11-21T14:18:58;2.80;;;2.60;;
4244;SDS011;2136;48.502;9.194;2023-11-21T14:21:29;2.93;;;2.70;;
4244;SDS011;2136;48.502;9.194;2023-11-21T14:23:57;2.30;;;2.10;;
4244;SDS011;2136;48.502;9.194;2023-11-21T14:26:23;2.63;;;2.30;;
4244;SDS011;2136;48.502;9.194;2023-11-21T14:28:50;2.90;;;2.70;;
4244;SDS011;2136;48.502;9.194;2023-11-21T14:31:20;3.20;;;2.90;;
4244;SDS011;2136;48.502;9.194;2023-11-21T14:33:47;3.07;;;2.47;;
4244;SDS011;2136;48.502;9.194;2023-11-21T14:36:14;3.00;;;2.30;;
4244;SDS011;2136;48.502;9.194;2023-11-21T14:38:42;2.40;;;2.30;;
4244;SDS011;2136;48.502;9.194;2023-11-21T14:41:09;4.63;;;2.70;;
4244;SDS011;2136;48.502;9.194;2023-11-21T14:43:36;3.70;;;3.40;;
4244;SDS011;2136;48.502;9.194;2023-11-21T14:46:04;5.47;;;3.60;;
4244;SDS011;2136;48.502;9.194;2023-11-21T14:48:36;7.20;;;4.17;;
4244;SDS011;2136;48.502;9.194;2023-11-21T14:51:07;5.60;;;5.10;;
4244;SDS011;2136;48.502;9.194;2023-11-21T14:54:00;4.80;;;3.00;;
4244;SDS011;2136;48.502;9.194;2023-11-21T14:56:31;2.63;;;2.43;;
4244;SDS011;2136;48.502;9.194;2023-11-21T14:58:59;3.53;;;3.07;;
4244;SDS011;2136;48.502;9.194;2023-11-21T15:01:30;3.10;;;2.80;;
4244;SDS011;2136;48.502;9.194;2023-11-21T15:04:10;3.07;;;2.40;;
4244;SDS011;2136;48.502;9.194;2023-11-21T15:06:47;4.40;;;3.20;;
4244;SDS011;2136;48.502;9.194;2023-11-21T15:09:13;8.03;;;3.43;;
4244;SDS011;2136;48.502;9.194;2023-11-21T15:12:00;4.53;;;4.10;;
4244;SDS011;2136;48.502;9.194;2023-11-21T15:14:36;5.60;;;3.30;;
4244;SDS011;2136;48.502;9.194;2023-11-21T15:17:03;3.70;;;3.20;;
4244;SDS011;2136;48.502;9.194;2023-11-21T15:19:31;3.50;;;3.20;;
4244;SDS011;2136;48.502;9.194;2023-11-21T15:21:59;3.87;;;2.50;;
4244;SDS011;2136;48.502;9.194;2023-11-21T15:24:26;3.13;;;2.20;;
4244;SDS011;2136;48.502;9.194;2023-11-21T15:26:53;2.77;;;2.43;;